Historique des mesures à Cassis (13260), France
Quotidien Résumé Octobre 29, 2017 Unités:  Métrique    US   Métrique/US
« Précédent (Jour)
Suivant (Jour) »
Quotidien Hebdomadaire Mensuel Annuel Période au choix
  Maximum: Minimum: Moyenne:
Température: TemperatureC °C 10.8 °C 13.9 °C
Point de rosée: DewpointC °C 3.3 °C 5.4 °C
Humidité: Humidity % 46 % 53 %
Vitesse du vent: 0 km/h 12.2 km/h 31.2 km/h
Rafales: 0 km/h - -
Vent:- - SSW
Pression: PressurehPa hPa 1003.3 hPa -
Précipitations: 3.0 mm    
Historical Graphs
 
 
Mesures pour : Octobre 29, 2017
Heure Temperature Point de rosée Pression Vent Vitesse du vent Rafales Humidité Pluie (par heure) Conditions
TemperatureC °C DewpointC °C PressurehPa hPa Calm     Humidity % HourlyPrecipMM mm SoftwareType W/m2
00:11 12.9 °C 3.5 °C 1011.7 hPa NNW 30.1 km/h 30.1 km/h 53 % 0.0 mm open2300-1.11 W/m2
01:11 12.4 °C 3.3 °C 1012.4 hPa NNW 23 km/h 23 km/h 54 % 0.0 mm open2300-1.11 W/m2
02:11 12.1 °C 3.6 °C 1011.7 hPa NNE 24.3 km/h 24.3 km/h 56 % 0.0 mm open2300-1.11 W/m2
02:10 11.9 °C 3.3 °C 1011.7 hPa NW 19.6 km/h 22 km/h 56 % 0.0 mm open2300-1.11 W/m2
03:11 11.6 °C 3.3 °C 1011.7 hPa North 12.2 km/h 45.4 km/h 57 % 0.0 mm open2300-1.11 W/m2
05:11 10.9 °C 3.4 °C 1011.1 hPa NW 34.1 km/h 50.5 km/h 60 % 0.0 mm open2300-1.11 W/m2
06:10 10.8 °C 3.6 °C 1011.1 hPa NNW 13.2 km/h 26.7 km/h 61 % 0.0 mm open2300-1.11 W/m2
07:11 11.1 °C 3.3 °C 1010.0 hPa NW 42.6 km/h 48.6 km/h 59 % 0.0 mm open2300-1.11 W/m2
08:10 11.6 °C 3.8 °C 1011.1 hPa North 17.9 km/h 22 km/h 59 % 0.0 mm open2300-1.11 W/m2
09:11 12.6 °C 4.8 °C 1011.1 hPa NW 22 km/h 23.8 km/h 59 % 0.0 mm open2300-1.11 W/m2
10:10 14.4 °C 4.9 °C 1010.0 hPa NW 31.4 km/h 57.9 km/h 53 % 0.0 mm open2300-1.11 W/m2
11:11 15.5 °C 5.2 °C 1009.7 hPa NW 49.7 km/h 49.7 km/h 50 % 0.0 mm open2300-1.11 W/m2
12:10 17.2 °C 6.1 °C 1008.7 hPa North 27.2 km/h 32.3 km/h 48 % 0.0 mm open2300-1.11 W/m2
13:11 18.6 °C 7.0 °C 1007.7 hPa NNE 15 km/h 15 km/h 47 % 0.0 mm open2300-1.11 W/m2
14:10 18.9 °C 7.0 °C 1006.3 hPa NNW 46.8 km/h 51 km/h 46 % 0.0 mm open2300-1.11 W/m2
15:11 18.8 °C 7.2 °C 1005.6 hPa North 39.9 km/h 43.5 km/h 47 % 0.0 mm open2300-1.11 W/m2
16:10 18.5 °C 7.6 °C 1004.6 hPa North 54.4 km/h 56.6 km/h 49 % 0.0 mm open2300-1.11 W/m2
17:11 17.2 °C 7.5 °C 1005.3 hPa NNE 38.3 km/h 60.8 km/h 53 % 0.5 mm open2300-1.11 W/m2
18:10 16.1 °C 7.1 °C 1004.6 hPa North 31.4 km/h 42.2 km/h 55 % 2.5 mm open2300-1.11 W/m2
19:11 15.3 °C 7.3 °C 1004.6 hPa NNE 52 km/h 56.2 km/h 59 % 0.0 mm open2300-1.11 W/m2
20:10 15.3 °C 7.8 °C 1005.0 hPa NW 56.2 km/h 56.2 km/h 61 % 0.0 mm open2300-1.11 W/m2
21:11 14.9 °C 7.9 °C 1003.9 hPa NNW 36.5 km/h 78.2 km/h 63 % 0.0 mm open2300-1.11 W/m2
22:10 14.7 °C 8.2 °C 1003.3 hPa NNW 34.8 km/h 56.6 km/h 65 % 0.0 mm open2300-1.11 W/m2
23:11 14.7 °C 8.2 °C 1005.0 hPa NNW 27.7 km/h 44.1 km/h 65 % 0.0 mm open2300-1.11 W/m2
Observations météo à CASSIS
WU-History script by Weather Underground - 1 mb